createdAt,value
2023-12-11T00:00:09.808Z,94551.63
2023-12-11T00:03:13.934Z,94541.91
2023-12-11T00:06:17.566Z,94563.09
2023-12-11T00:09:20.629Z,94566.72
2023-12-11T00:12:22.626Z,94565.78
2023-12-11T00:15:24.547Z,94589.00
2023-12-11T00:18:27.018Z,94574.84
2023-12-11T00:21:30.463Z,94601.00
2023-12-11T00:24:32.390Z,94638.00
2023-12-11T00:27:36.837Z,94618.41
2023-12-11T00:30:43.079Z,94594.81
2023-12-11T00:33:45.173Z,94589.72
2023-12-11T00:36:49.809Z,94574.13
2023-12-11T00:39:51.802Z,94587.44
2023-12-11T00:42:54.222Z,94579.63
2023-12-11T00:45:56.129Z,94577.56
2023-12-11T00:48:58.886Z,94587.53
2023-12-11T00:52:02.604Z,94595.59
2023-12-11T00:55:05.549Z,94605.97
2023-12-11T00:58:08.247Z,94586.81
2023-12-11T01:01:12.218Z,94602.38
2023-12-11T01:04:14.413Z,94618.81
2023-12-11T01:07:18.006Z,94601.28
2023-12-11T01:10:20.319Z,94637.41
2023-12-11T01:13:22.442Z,94652.78
2023-12-11T01:16:24.864Z,94639.38
2023-12-11T01:19:27.261Z,94599.59
2023-12-11T01:22:31.671Z,94637.56
2023-12-11T01:25:33.894Z,94629.50
2023-12-11T01:28:36.163Z,94625.06
2023-12-11T01:31:38.177Z,94630.41
2023-12-11T01:34:42.001Z,94680.09
2023-12-11T01:37:45.284Z,94709.78
2023-12-11T01:40:47.237Z,94713.28
2023-12-11T01:43:54.432Z,94723.72
2023-12-11T01:46:56.617Z,94711.50
2023-12-11T01:49:58.625Z,94710.97
2023-12-11T01:53:02.817Z,94699.41
2023-12-11T01:56:05.571Z,94690.91
2023-12-11T01:59:08.072Z,94673.84
2023-12-11T02:02:10.246Z,94659.91
2023-12-11T02:05:12.667Z,94662.28
2023-12-11T02:08:17.201Z,94667.25
2023-12-11T02:11:19.813Z,94660.19
2023-12-11T02:14:22.072Z,94667.34
2023-12-11T02:17:24.339Z,94667.41
2023-12-11T02:20:26.553Z,94682.66
2023-12-11T02:23:38.042Z,94678.88
2023-12-11T02:26:42.104Z,94681.09
2023-12-11T02:29:43.935Z,94670.44
2023-12-11T02:32:46.212Z,94664.81
2023-12-11T02:35:50.067Z,94664.25
2023-12-11T02:38:52.425Z,94658.97
2023-12-11T02:41:55.884Z,94663.59
2023-12-11T02:44:57.800Z,94657.56
2023-12-11T02:47:59.760Z,94666.41
2023-12-11T02:51:01.850Z,94639.59
2023-12-11T02:54:03.849Z,94651.38
2023-12-11T02:57:07.720Z,94667.03
2023-12-11T03:00:10.190Z,94666.41
2023-12-11T03:03:12.136Z,94650.38
2023-12-11T03:06:18.466Z,94653.41
2023-12-11T03:09:20.366Z,94633.75
2023-12-11T03:12:24.113Z,94636.41
2023-12-11T03:15:26.381Z,94633.78
2023-12-11T03:18:28.380Z,94618.47
2023-12-11T03:21:30.448Z,94611.19
2023-12-11T03:24:35.440Z,94614.00
2023-12-11T03:27:39.239Z,94619.38
2023-12-11T03:30:41.234Z,94625.09
2023-12-11T03:33:43.651Z,94636.09
2023-12-11T03:36:45.670Z,94649.13
2023-12-11T03:39:48.230Z,94652.69
2023-12-11T03:42:51.668Z,94663.06
2023-12-11T03:45:55.079Z,94672.56
2023-12-11T03:48:57.561Z,94683.06
2023-12-11T03:51:59.777Z,94690.44
2023-12-11T03:55:03.113Z,94717.13
2023-12-11T03:58:06.881Z,94723.56
2023-12-11T04:01:09.977Z,94742.38
2023-12-11T04:04:12.237Z,94740.47
2023-12-11T04:07:14.302Z,94734.84
2023-12-11T04:10:16.857Z,94722.81
2023-12-11T04:13:20.195Z,94728.75
2023-12-11T04:16:22.717Z,94728.75
2023-12-11T04:19:24.933Z,94709.38
2023-12-11T04:22:27.257Z,94736.03
2023-12-11T04:25:29.145Z,94752.63
2023-12-11T04:28:32.584Z,94748.16
2023-12-11T04:31:34.837Z,94756.22
2023-12-11T04:34:37.200Z,94758.44
2023-12-11T04:37:39.787Z,94743.44
2023-12-11T04:40:41.972Z,94747.81
2023-12-11T04:43:45.597Z,94738.91
2023-12-11T04:46:47.688Z,94744.16
2023-12-11T04:49:49.776Z,94758.66
2023-12-11T04:52:51.799Z,94770.19
2023-12-11T04:55:54.103Z,94779.97
2023-12-11T04:58:57.512Z,94790.75
2023-12-11T05:01:59.959Z,94785.41
2023-12-11T05:05:01.901Z,94781.25
2023-12-11T05:08:04.140Z,94780.78
2023-12-11T05:11:07.428Z,94756.66
2023-12-11T05:14:11.175Z,94769.75
2023-12-11T05:17:13.179Z,94761.59
2023-12-11T05:20:15.205Z,94746.44
2023-12-11T05:23:17.275Z,94749.06
2023-12-11T05:26:20.184Z,94763.78
2023-12-11T05:29:25.605Z,94767.59
2023-12-11T05:32:27.816Z,94749.53
2023-12-11T05:35:30.368Z,94764.81
2023-12-11T05:38:32.536Z,94744.94
2023-12-11T05:41:37.249Z,94755.94
2023-12-11T05:44:41.027Z,94739.22
2023-12-11T05:47:43.032Z,94723.56
2023-12-11T05:50:45.006Z,94735.41
2023-12-11T05:53:46.940Z,94727.72
2023-12-11T05:56:49.549Z,94738.00
2023-12-11T05:59:52.810Z,94729.09
2023-12-11T06:02:55.260Z,94717.63
2023-12-11T06:05:57.196Z,94707.25
2023-12-11T06:08:59.061Z,94706.47
2023-12-11T06:12:01.022Z,94705.34
2023-12-11T06:15:05.659Z,94698.38
2023-12-11T06:18:08.824Z,94691.09
2023-12-11T06:21:18.581Z,94710.16
2023-12-11T06:24:20.631Z,94711.63
2023-12-11T06:27:23.200Z,94710.09
2023-12-11T06:30:26.771Z,94704.00
2023-12-11T06:33:28.688Z,94716.94
2023-12-11T06:36:30.673Z,94735.63
2023-12-11T06:39:32.968Z,94718.47
2023-12-11T06:42:35.607Z,94705.44
2023-12-11T06:45:39.444Z,94696.72
2023-12-11T06:48:41.768Z,94706.81
2023-12-11T06:51:44.093Z,94697.69
2023-12-11T06:54:46.058Z,94696.94
2023-12-11T06:57:48.007Z,94695.06
2023-12-11T07:00:51.989Z,94680.94
2023-12-11T07:03:54.159Z,94680.16
2023-12-11T07:06:56.267Z,94679.81
2023-12-11T07:09:59.233Z,94663.78
2023-12-11T07:13:01.685Z,94670.25
2023-12-11T07:16:05.872Z,94682.59
2023-12-11T07:19:07.840Z,94664.44
2023-12-11T07:22:09.724Z,94673.09
2023-12-11T07:25:11.907Z,94655.28
2023-12-11T07:28:13.871Z,94671.38
2023-12-11T07:31:17.337Z,94661.19
2023-12-11T07:34:19.257Z,94674.41
2023-12-11T07:37:22.297Z,94666.03
2023-12-11T07:40:26.853Z,94649.56
2023-12-11T07:43:28.702Z,94644.53
2023-12-11T07:46:32.738Z,94635.34
2023-12-11T07:49:34.628Z,94629.16
2023-12-11T07:52:36.521Z,94617.31
2023-12-11T07:55:38.424Z,94618.06
2023-12-11T07:58:40.194Z,94618.47
2023-12-11T08:01:43.425Z,94624.19
2023-12-11T08:04:45.470Z,94604.69
2023-12-11T08:07:47.408Z,94599.97
2023-12-11T08:10:49.301Z,94606.91
2023-12-11T08:13:51.490Z,94611.78
2023-12-11T08:16:54.659Z,94600.72
2023-12-11T08:19:56.561Z,94592.78
2023-12-11T08:22:58.358Z,94599.75
2023-12-11T08:26:00.211Z,94596.66
2023-12-11T08:29:01.969Z,94601.47
2023-12-11T08:32:08.432Z,94593.88
2023-12-11T08:35:11.964Z,94595.09
2023-12-11T08:38:16.640Z,94577.59
2023-12-11T08:41:18.431Z,94587.97
2023-12-11T08:44:20.233Z,94589.94
2023-12-11T08:47:23.918Z,94581.13
2023-12-11T08:50:25.694Z,94592.25
2023-12-11T08:53:27.503Z,94597.97
2023-12-11T08:56:29.796Z,94605.56
2023-12-11T08:59:31.703Z,94610.13
2023-12-11T09:02:35.038Z,94607.06
2023-12-11T09:05:36.792Z,94608.53
2023-12-11T09:08:38.603Z,94599.75
2023-12-11T09:11:40.401Z,94596.38
2023-12-11T09:14:42.186Z,94597.47
2023-12-11T09:17:45.427Z,94600.59
2023-12-11T09:20:47.315Z,94597.22
2023-12-11T09:23:49.361Z,94586.56
2023-12-11T09:26:51.102Z,94594.69
2023-12-11T09:29:52.892Z,94586.38
2023-12-11T09:32:56.126Z,94591.50
2023-12-11T09:35:58.057Z,94595.41
2023-12-11T09:38:59.843Z,94566.75
2023-12-11T09:42:02.395Z,94534.31
2023-12-11T09:45:05.081Z,94552.38
2023-12-11T09:48:14.242Z,94525.88
2023-12-11T09:51:17.729Z,94516.78
2023-12-11T09:54:19.623Z,94536.94
2023-12-11T09:57:22.568Z,94514.31
2023-12-11T10:00:24.450Z,94522.75
2023-12-11T10:03:28.044Z,94544.84
2023-12-11T10:06:29.835Z,94552.25
2023-12-11T10:09:32.923Z,94571.78
2023-12-11T10:12:40.346Z,94571.41
2023-12-11T10:15:42.190Z,94567.97
2023-12-11T10:18:49.630Z,94548.94
2023-12-11T10:21:51.606Z,94556.72
2023-12-11T10:24:53.483Z,94561.72
2023-12-11T10:28:09.122Z,94552.13
2023-12-11T10:31:11.361Z,94518.75
2023-12-11T10:34:14.976Z,94506.84
2023-12-11T10:37:17.391Z,94514.16
2023-12-11T10:40:19.326Z,94515.63
2023-12-11T10:43:21.334Z,94499.09
2023-12-11T10:46:23.610Z,94497.91
2023-12-11T10:49:26.805Z,94499.81
2023-12-11T10:52:28.724Z,94494.78
2023-12-11T10:55:31.021Z,94523.81
2023-12-11T10:58:35.446Z,94546.69
2023-12-11T11:01:37.576Z,94560.47
2023-12-11T11:04:43.695Z,94581.88
2023-12-11T11:07:50.433Z,94590.38
2023-12-11T11:10:58.075Z,94586.91
2023-12-11T11:14:25.697Z,94567.81
2023-12-11T11:17:57.953Z,94590.19
2023-12-11T11:21:11.627Z,94568.84
2023-12-11T11:24:25.867Z,94569.72
2023-12-11T11:27:42.560Z,94568.22
2023-12-11T11:30:50.877Z,94557.16
2023-12-11T11:33:53.106Z,94561.41
2023-12-11T11:36:56.340Z,94565.66
2023-12-11T11:40:01.084Z,94576.38
2023-12-11T11:43:03.347Z,94561.41
2023-12-11T11:46:05.480Z,94570.19
2023-12-11T11:49:07.339Z,94548.69
2023-12-11T11:52:10.649Z,94550.22
2023-12-11T11:55:20.041Z,94559.78
2023-12-11T11:58:24.870Z,94566.72
2023-12-11T12:01:26.715Z,94547.94
2023-12-11T12:04:29.825Z,94544.50
2023-12-11T12:07:33.544Z,94551.00
2023-12-11T12:10:35.838Z,94549.06
2023-12-11T12:13:39.040Z,94547.13
2023-12-11T12:16:41.069Z,94546.38
2023-12-11T12:19:42.826Z,94560.19
2023-12-11T12:22:59.056Z,94554.44
2023-12-11T12:26:04.216Z,94548.34
2023-12-11T12:29:06.462Z,94536.06
2023-12-11T12:32:09.573Z,94523.00
2023-12-11T12:35:12.212Z,94507.00
2023-12-11T12:38:18.680Z,94503.59
2023-12-11T12:41:20.410Z,94497.16
2023-12-11T12:44:22.434Z,94513.25
2023-12-11T12:47:24.171Z,94491.38
2023-12-11T12:50:27.482Z,94515.91
2023-12-11T12:53:30.626Z,94522.81
2023-12-11T12:56:32.474Z,94506.75
2023-12-11T12:59:34.267Z,94502.88
2023-12-11T13:02:35.990Z,94519.34
2023-12-11T13:05:40.199Z,94520.13
2023-12-11T13:08:44.347Z,94512.81
2023-12-11T13:11:47.473Z,94515.91
2023-12-11T13:14:49.212Z,94512.44
2023-12-11T13:17:53.808Z,94507.84
2023-12-11T13:20:55.704Z,94507.03
2023-12-11T13:24:01.178Z,94500.94
2023-12-11T13:27:03.314Z,94504.78
2023-12-11T13:30:08.210Z,94531.59
2023-12-11T13:33:10.241Z,94530.44
2023-12-11T13:36:12.570Z,94531.19
2023-12-11T13:39:15.691Z,94527.75
2023-12-11T13:42:17.529Z,94540.34
2023-12-11T13:45:19.299Z,94533.81
2023-12-11T13:48:21.114Z,94536.53
2023-12-11T13:51:22.989Z,94548.81
2023-12-11T13:54:26.164Z,94551.47
2023-12-11T13:57:28.133Z,94546.13
2023-12-11T14:00:30.249Z,94536.22
2023-12-11T14:03:32.102Z,94541.94
2023-12-11T14:06:33.944Z,94532.41
2023-12-11T14:09:37.174Z,94535.81
2023-12-11T14:12:40.256Z,94563.81
2023-12-11T14:15:42.937Z,94573.88
2023-12-11T14:18:44.824Z,94591.47
2023-12-11T14:21:49.533Z,94583.03
2023-12-11T14:24:53.498Z,94598.38
2023-12-11T14:27:55.452Z,94597.66
2023-12-11T14:30:57.284Z,94596.16
2023-12-11T14:33:59.215Z,94604.91
2023-12-11T14:37:01.155Z,94615.34
2023-12-11T14:40:05.353Z,94630.69
2023-12-11T14:43:07.149Z,94636.44
2023-12-11T14:46:09.044Z,94640.28
2023-12-11T14:49:10.887Z,94629.91
2023-12-11T14:52:12.787Z,94637.09
2023-12-11T14:55:24.734Z,94636.34
2023-12-11T14:58:27.655Z,94640.16
2023-12-11T15:01:29.600Z,94633.25
2023-12-11T15:04:31.438Z,94622.53
2023-12-11T15:07:33.724Z,94643.97
2023-12-11T15:10:37.086Z,94631.72
2023-12-11T15:13:38.810Z,94633.63
2023-12-11T15:16:41.072Z,94634.00
2023-12-11T15:19:43.000Z,94640.16
2023-12-11T15:22:44.723Z,94651.75
2023-12-11T15:25:47.876Z,94653.63
2023-12-11T15:28:49.775Z,94660.97
2023-12-11T15:31:51.625Z,94664.03
2023-12-11T15:34:53.394Z,94664.47
2023-12-11T15:37:55.219Z,94666.00
2023-12-11T15:40:58.357Z,94646.81
2023-12-11T15:44:00.136Z,94652.53
2023-12-11T15:47:02.005Z,94650.53
2023-12-11T15:50:07.508Z,94652.59
2023-12-11T15:53:09.844Z,94641.47
2023-12-11T15:56:13.548Z,94651.88
2023-12-11T15:59:15.265Z,94637.25
2023-12-11T16:02:17.034Z,94638.06
2023-12-11T16:05:18.745Z,94653.34
2023-12-11T16:08:20.501Z,94646.84
2023-12-11T16:11:23.583Z,94651.81
2023-12-11T16:14:25.343Z,94654.09
2023-12-11T16:17:27.080Z,94664.81
2023-12-11T16:20:28.832Z,94682.50
2023-12-11T16:23:30.642Z,94662.22
2023-12-11T16:26:33.777Z,94661.06
2023-12-11T16:29:35.540Z,94671.44
2023-12-11T16:32:37.393Z,94672.53
2023-12-11T16:35:39.301Z,94675.56
2023-12-11T16:38:41.531Z,94680.97
2023-12-11T16:41:44.658Z,94686.78
2023-12-11T16:44:47.406Z,94673.72
2023-12-11T16:47:49.353Z,94675.56
2023-12-11T16:50:51.310Z,94678.22
2023-12-11T16:53:53.188Z,94675.13
2023-12-11T16:56:56.377Z,94686.63
2023-12-11T16:59:58.176Z,94680.00
2023-12-11T17:02:59.981Z,94686.06
2023-12-11T17:06:01.825Z,94678.72
2023-12-11T17:09:03.732Z,94683.31
2023-12-11T17:12:07.646Z,94686.03
2023-12-11T17:15:10.202Z,94684.19
2023-12-11T17:18:12.089Z,94700.97
2023-12-11T17:21:22.035Z,94698.28
2023-12-11T17:24:27.397Z,94695.19
2023-12-11T17:27:30.875Z,94687.50
2023-12-11T17:30:32.857Z,94690.63
2023-12-11T17:33:34.795Z,94700.28
2023-12-11T17:36:36.565Z,94698.38
2023-12-11T17:39:38.353Z,94718.69
2023-12-11T17:42:41.524Z,94710.59
2023-12-11T17:45:43.586Z,94710.97
2023-12-11T17:48:45.771Z,94710.63
2023-12-11T17:51:47.828Z,94704.13
2023-12-11T17:54:50.188Z,94713.78
2023-12-11T17:57:53.721Z,94707.97
2023-12-11T18:00:56.085Z,94726.41
2023-12-11T18:03:58.221Z,94726.00
2023-12-11T18:07:00.278Z,94726.88
2023-12-11T18:10:02.242Z,94723.31
2023-12-11T18:13:05.773Z,94727.63
2023-12-11T18:16:08.498Z,94731.19
2023-12-11T18:19:10.412Z,94730.84
2023-12-11T18:22:12.488Z,94740.84
2023-12-11T18:25:15.228Z,94731.16
2023-12-11T18:28:18.805Z,94728.44
2023-12-11T18:31:25.474Z,94727.66
2023-12-11T18:34:39.499Z,94737.63
2023-12-11T18:37:49.558Z,94738.78
2023-12-11T18:40:51.678Z,94748.00
2023-12-11T18:43:55.455Z,94751.06
2023-12-11T18:46:59.337Z,94755.16
2023-12-11T18:50:02.113Z,94749.44
2023-12-11T18:53:04.862Z,94757.84
2023-12-11T18:56:08.565Z,94752.06
2023-12-11T18:59:12.382Z,94767.00
2023-12-11T19:02:15.013Z,94759.16
2023-12-11T19:05:20.138Z,94771.81
2023-12-11T19:08:22.419Z,94758.06
2023-12-11T19:11:24.409Z,94770.72
2023-12-11T19:14:29.140Z,94770.78
2023-12-11T19:17:32.488Z,94779.63
2023-12-11T19:20:35.042Z,94786.81
2023-12-11T19:23:37.860Z,94781.16
2023-12-11T19:26:40.094Z,94784.16
2023-12-11T19:29:43.770Z,94798.03
2023-12-11T19:32:45.990Z,94799.56
2023-12-11T19:35:48.800Z,94806.53
2023-12-11T19:38:53.476Z,94803.06
2023-12-11T19:41:56.369Z,94802.69
2023-12-11T19:45:00.538Z,94802.28
2023-12-11T19:48:02.796Z,94811.44
2023-12-11T19:51:12.251Z,94813.38
2023-12-11T19:54:14.628Z,94802.22
2023-12-11T19:57:16.818Z,94819.88
2023-12-11T20:00:21.511Z,94826.75
2023-12-11T20:03:23.482Z,94822.22
2023-12-11T20:06:25.979Z,94842.53
2023-12-11T20:09:30.450Z,94832.53
2023-12-11T20:12:34.054Z,94821.44
2023-12-11T20:15:37.418Z,94826.06
2023-12-11T20:18:39.541Z,94831.34
2023-12-11T20:21:41.542Z,94835.25
2023-12-11T20:24:43.666Z,94839.94
2023-12-11T20:27:46.256Z,94839.47
2023-12-11T20:30:51.253Z,94844.41
2023-12-11T20:33:53.727Z,94854.00
2023-12-11T20:36:56.719Z,94850.97
2023-12-11T20:39:59.330Z,94849.38
2023-12-11T20:43:05.959Z,94867.41
2023-12-11T20:46:10.304Z,94860.50
2023-12-11T20:49:12.474Z,94876.31
2023-12-11T20:52:14.534Z,94859.84
2023-12-11T20:55:16.923Z,94872.38
2023-12-11T20:58:19.865Z,94881.28
2023-12-11T21:01:31.277Z,94877.44
2023-12-11T21:04:33.708Z,94883.19
2023-12-11T21:07:35.908Z,94878.47
2023-12-11T21:10:37.958Z,94875.03
2023-12-11T21:13:40.312Z,94885.78
2023-12-11T21:16:43.809Z,94871.53
2023-12-11T21:19:45.886Z,94896.50
2023-12-11T21:22:48.244Z,94895.16
2023-12-11T21:25:50.162Z,94896.41
2023-12-11T21:28:53.229Z,94903.47
2023-12-11T21:31:56.642Z,94904.22
2023-12-11T21:34:58.653Z,94899.91
2023-12-11T21:38:00.796Z,94899.50
2023-12-11T21:41:02.777Z,94907.41
2023-12-11T21:44:05.129Z,94908.41
2023-12-11T21:47:08.854Z,94921.47
2023-12-11T21:50:11.386Z,94918.84
2023-12-11T21:53:13.488Z,94914.22
2023-12-11T21:56:15.572Z,94911.88
2023-12-11T21:59:17.553Z,94908.69
2023-12-11T22:02:20.801Z,94911.34
2023-12-11T22:05:22.933Z,94911.50
2023-12-11T22:08:25.800Z,94915.44
2023-12-11T22:11:27.729Z,94901.56
2023-12-11T22:14:29.764Z,94913.09
2023-12-11T22:17:33.462Z,94915.34
2023-12-11T22:20:35.724Z,94933.03
2023-12-11T22:23:37.657Z,94939.19
2023-12-11T22:26:40.275Z,94946.66
2023-12-11T22:29:46.430Z,94958.91
2023-12-11T22:32:51.520Z,94966.16
2023-12-11T22:35:53.554Z,94969.22
2023-12-11T22:38:55.435Z,94974.94
2023-12-11T22:41:57.545Z,94979.09
2023-12-11T22:44:59.418Z,94973.44
2023-12-11T22:48:03.711Z,94976.81
2023-12-11T22:51:06.205Z,94972.66
2023-12-11T22:54:08.079Z,94967.28
2023-12-11T22:57:09.932Z,94968.84
2023-12-11T23:00:13.788Z,94969.13
2023-12-11T23:03:17.415Z,94968.78
2023-12-11T23:06:19.380Z,94969.22
2023-12-11T23:09:21.297Z,94961.16
2023-12-11T23:12:23.199Z,94964.75
2023-12-11T23:15:25.125Z,94969.97
2023-12-11T23:18:28.818Z,94971.63
2023-12-11T23:21:31.367Z,94966.97
2023-12-11T23:24:33.457Z,94965.34
2023-12-11T23:27:35.308Z,94960.72
2023-12-11T23:30:37.236Z,94965.34
2023-12-11T23:33:40.687Z,94957.00
2023-12-11T23:36:43.199Z,94965.81
2023-12-11T23:39:45.091Z,94963.56
2023-12-11T23:42:47.236Z,94960.00
2023-12-11T23:45:49.276Z,94955.19
2023-12-11T23:48:53.266Z,94962.34
2023-12-11T23:51:55.224Z,94968.38
2023-12-11T23:54:57.237Z,94963.41
2023-12-11T23:57:59.209Z,94962.22
